sensor_id;sensor_type;location;lat;lon;timestamp;pressure;altitude;pressure_sealevel;temperature;humidity
48846;BME280;34665;51.886;5.436;2023-07-29T00:01:35;100593.81;;;24.69;100.00
48846;BME280;34665;51.886;5.436;2023-07-29T00:04:01;100589.75;;;25.19;100.00
48846;BME280;34665;51.886;5.436;2023-07-29T00:06:27;100579.72;;;24.81;100.00
48846;BME280;34665;51.886;5.436;2023-07-29T00:08:52;100580.59;;;24.38;100.00
48846;BME280;34665;51.886;5.436;2023-07-29T00:11:18;100568.53;;;24.20;100.00
48846;BME280;34665;51.886;5.436;2023-07-29T00:13:43;100574.75;;;27.11;100.00
48846;BME280;34665;51.886;5.436;2023-07-29T00:16:09;100567.69;;;24.96;100.00
48846;BME280;34665;51.886;5.436;2023-07-29T00:18:34;100562.63;;;24.70;100.00
48846;BME280;34665;51.886;5.436;2023-07-29T00:21:00;100562.34;;;24.53;100.00
48846;BME280;34665;51.886;5.436;2023-07-29T00:23:25;100569.97;;;24.37;100.00
48846;BME280;34665;51.886;5.436;2023-07-29T00:25:50;100578.81;;;24.47;100.00
48846;BME280;34665;51.886;5.436;2023-07-29T00:28:16;100581.47;;;24.33;100.00
48846;BME280;34665;51.886;5.436;2023-07-29T00:30:43;100587.78;;;20.99;100.00
48846;BME280;34665;51.886;5.436;2023-07-29T00:33:09;100580.28;;;22.43;100.00
48846;BME280;34665;51.886;5.436;2023-07-29T00:35:34;100579.13;;;22.55;100.00
48846;BME280;34665;51.886;5.436;2023-07-29T00:38:00;100575.75;;;22.28;100.00
48846;BME280;34665;51.886;5.436;2023-07-29T00:40:25;100575.84;;;25.76;100.00
48846;BME280;34665;51.886;5.436;2023-07-29T00:42:53;100578.06;;;25.88;100.00
48846;BME280;34665;51.886;5.436;2023-07-29T00:45:18;100577.84;;;26.72;100.00
48846;BME280;34665;51.886;5.436;2023-07-29T00:47:44;100575.19;;;24.71;100.00
48846;BME280;34665;51.886;5.436;2023-07-29T00:50:11;100580.94;;;24.12;100.00
48846;BME280;34665;51.886;5.436;2023-07-29T00:52:37;100571.28;;;24.20;100.00
48846;BME280;34665;51.886;5.436;2023-07-29T00:55:03;100546.63;;;24.25;100.00
48846;BME280;34665;51.886;5.436;2023-07-29T00:57:30;100543.22;;;24.53;100.00
48846;BME280;34665;51.886;5.436;2023-07-29T00:59:55;100549.63;;;24.81;100.00
48846;BME280;34665;51.886;5.436;2023-07-29T01:02:21;100548.75;;;24.47;100.00
48846;BME280;34665;51.886;5.436;2023-07-29T01:04:56;100559.00;;;24.17;100.00
48846;BME280;34665;51.886;5.436;2023-07-29T01:07:26;100562.13;;;23.86;100.00
48846;BME280;34665;51.886;5.436;2023-07-29T01:12:28;100576.47;;;23.73;100.00
48846;BME280;34665;51.886;5.436;2023-07-29T01:14:57;100563.75;;;23.87;100.00
48846;BME280;34665;51.886;5.436;2023-07-29T01:17:45;100563.97;;;24.34;100.00
48846;BME280;34665;51.886;5.436;2023-07-29T01:20:13;100560.81;;;24.99;100.00
48846;BME280;34665;51.886;5.436;2023-07-29T01:22:39;100566.66;;;24.73;100.00
48846;BME280;34665;51.886;5.436;2023-07-29T01:25:05;100568.97;;;24.85;100.00
48846;BME280;34665;51.886;5.436;2023-07-29T01:27:31;100561.22;;;24.54;100.00
48846;BME280;34665;51.886;5.436;2023-07-29T01:29:57;100568.84;;;25.09;100.00
48846;BME280;34665;51.886;5.436;2023-07-29T01:34:52;100563.03;;;25.44;100.00
48846;BME280;34665;51.886;5.436;2023-07-29T01:37:19;100560.97;;;25.35;100.00
48846;BME280;34665;51.886;5.436;2023-07-29T01:39:48;100556.00;;;26.22;100.00
48846;BME280;34665;51.886;5.436;2023-07-29T01:42:15;100554.53;;;27.07;100.00
48846;BME280;34665;51.886;5.436;2023-07-29T01:44:40;100553.47;;;22.66;100.00
48846;BME280;34665;51.886;5.436;2023-07-29T01:47:07;100557.28;;;22.65;100.00
48846;BME280;34665;51.886;5.436;2023-07-29T01:49:33;100551.25;;;23.03;100.00
48846;BME280;34665;51.886;5.436;2023-07-29T01:51:59;100552.81;;;23.09;100.00
48846;BME280;34665;51.886;5.436;2023-07-29T01:54:24;100545.66;;;22.89;100.00
48846;BME280;34665;51.886;5.436;2023-07-29T01:56:50;100545.50;;;22.75;100.00
48846;BME280;34665;51.886;5.436;2023-07-29T01:59:16;100544.34;;;22.81;100.00
48846;BME280;34665;51.886;5.436;2023-07-29T02:01:42;100543.34;;;23.01;100.00
48846;BME280;34665;51.886;5.436;2023-07-29T02:04:08;100545.53;;;22.99;100.00
48846;BME280;34665;51.886;5.436;2023-07-29T02:06:33;100552.63;;;23.00;100.00
48846;BME280;34665;51.886;5.436;2023-07-29T02:08:59;100549.09;;;23.29;100.00
48846;BME280;34665;51.886;5.436;2023-07-29T02:11:24;100548.06;;;23.25;100.00
48846;BME280;34665;51.886;5.436;2023-07-29T02:13:53;100544.34;;;23.40;100.00
48846;BME280;34665;51.886;5.436;2023-07-29T02:16:19;100546.81;;;23.42;100.00
48846;BME280;34665;51.886;5.436;2023-07-29T02:18:45;100548.88;;;23.26;100.00
48846;BME280;34665;51.886;5.436;2023-07-29T02:21:11;100542.31;;;23.51;100.00
48846;BME280;34665;51.886;5.436;2023-07-29T02:23:36;100544.84;;;23.18;100.00
48846;BME280;34665;51.886;5.436;2023-07-29T02:26:02;100544.47;;;23.30;100.00
48846;BME280;34665;51.886;5.436;2023-07-29T02:28:27;100540.19;;;23.18;100.00
48846;BME280;34665;51.886;5.436;2023-07-29T02:33:57;100530.03;;;23.24;100.00
48846;BME280;34665;51.886;5.436;2023-07-29T02:36:23;100519.97;;;23.49;100.00
48846;BME280;34665;51.886;5.436;2023-07-29T02:38:49;100530.63;;;23.21;100.00
48846;BME280;34665;51.886;5.436;2023-07-29T02:41:14;100526.38;;;23.10;100.00
48846;BME280;34665;51.886;5.436;2023-07-29T02:43:42;100522.75;;;23.14;100.00
48846;BME280;34665;51.886;5.436;2023-07-29T02:46:08;100521.75;;;22.75;100.00
48846;BME280;34665;51.886;5.436;2023-07-29T02:48:33;100521.53;;;23.01;100.00
48846;BME280;34665;51.886;5.436;2023-07-29T02:50:59;100519.75;;;22.52;100.00
48846;BME280;34665;51.886;5.436;2023-07-29T02:53:24;100518.78;;;22.72;100.00
48846;BME280;34665;51.886;5.436;2023-07-29T02:55:50;100523.72;;;22.70;100.00
48846;BME280;34665;51.886;5.436;2023-07-29T02:58:15;100519.88;;;22.76;100.00
48846;BME280;34665;51.886;5.436;2023-07-29T03:00:41;100516.50;;;22.84;100.00
48846;BME280;34665;51.886;5.436;2023-07-29T03:03:07;100521.72;;;22.81;100.00
48846;BME280;34665;51.886;5.436;2023-07-29T03:05:33;100508.38;;;22.79;100.00
48846;BME280;34665;51.886;5.436;2023-07-29T03:07:59;100510.44;;;22.92;100.00
48846;BME280;34665;51.886;5.436;2023-07-29T03:10:24;100513.34;;;23.01;100.00
48846;BME280;34665;51.886;5.436;2023-07-29T03:12:50;100510.28;;;22.78;100.00
48846;BME280;34665;51.886;5.436;2023-07-29T03:15:17;100515.53;;;22.70;100.00
48846;BME280;34665;51.886;5.436;2023-07-29T03:17:42;100525.31;;;22.76;100.00
48846;BME280;34665;51.886;5.436;2023-07-29T03:20:08;100521.81;;;22.70;100.00
48846;BME280;34665;51.886;5.436;2023-07-29T03:22:33;100515.34;;;22.61;100.00
48846;BME280;34665;51.886;5.436;2023-07-29T03:24:59;100510.53;;;22.82;100.00
48846;BME280;34665;51.886;5.436;2023-07-29T03:27:24;100512.88;;;22.94;100.00
48846;BME280;34665;51.886;5.436;2023-07-29T03:29:50;100515.34;;;22.90;100.00
48846;BME280;34665;51.886;5.436;2023-07-29T03:32:15;100514.31;;;22.52;100.00
48846;BME280;34665;51.886;5.436;2023-07-29T03:34:41;100513.00;;;22.78;100.00
48846;BME280;34665;51.886;5.436;2023-07-29T03:37:06;100515.31;;;22.66;100.00
48846;BME280;34665;51.886;5.436;2023-07-29T03:39:31;100510.00;;;22.80;100.00
48846;BME280;34665;51.886;5.436;2023-07-29T03:41:57;100506.06;;;23.70;100.00
48846;BME280;34665;51.886;5.436;2023-07-29T03:44:23;100515.16;;;23.11;100.00
48846;BME280;34665;51.886;5.436;2023-07-29T03:46:48;100521.34;;;22.63;100.00
48846;BME280;34665;51.886;5.436;2023-07-29T03:49:16;100523.88;;;23.13;100.00
48846;BME280;34665;51.886;5.436;2023-07-29T03:51:42;100514.78;;;23.72;100.00
48846;BME280;34665;51.886;5.436;2023-07-29T03:54:08;100516.38;;;23.78;100.00
48846;BME280;34665;51.886;5.436;2023-07-29T03:56:33;100530.25;;;23.33;100.00
48846;BME280;34665;51.886;5.436;2023-07-29T03:59:06;100533.69;;;23.44;100.00
48846;BME280;34665;51.886;5.436;2023-07-29T04:01:32;100525.31;;;23.59;100.00
48846;BME280;34665;51.886;5.436;2023-07-29T04:03:58;100526.59;;;23.43;100.00
48846;BME280;34665;51.886;5.436;2023-07-29T04:06:24;100521.97;;;23.14;100.00
48846;BME280;34665;51.886;5.436;2023-07-29T04:08:50;100515.41;;;23.15;100.00
48846;BME280;34665;51.886;5.436;2023-07-29T04:11:16;100515.16;;;23.11;100.00
48846;BME280;34665;51.886;5.436;2023-07-29T04:13:42;100499.81;;;22.91;100.00
48846;BME280;34665;51.886;5.436;2023-07-29T04:16:07;100493.78;;;22.94;100.00
48846;BME280;34665;51.886;5.436;2023-07-29T04:18:33;100493.28;;;22.92;100.00
48846;BME280;34665;51.886;5.436;2023-07-29T04:20:59;100495.72;;;22.59;100.00
48846;BME280;34665;51.886;5.436;2023-07-29T04:23:24;100502.81;;;23.19;100.00
48846;BME280;34665;51.886;5.436;2023-07-29T04:25:50;100503.66;;;23.19;100.00
48846;BME280;34665;51.886;5.436;2023-07-29T04:28:17;100495.53;;;22.85;100.00
48846;BME280;34665;51.886;5.436;2023-07-29T04:30:42;100492.97;;;22.94;100.00
48846;BME280;34665;51.886;5.436;2023-07-29T04:33:08;100510.94;;;22.95;100.00
48846;BME280;34665;51.886;5.436;2023-07-29T04:35:36;100511.91;;;22.80;100.00
48846;BME280;34665;51.886;5.436;2023-07-29T04:38:01;100528.72;;;22.57;100.00
48846;BME280;34665;51.886;5.436;2023-07-29T04:40:27;100530.66;;;22.52;100.00
48846;BME280;34665;51.886;5.436;2023-07-29T04:42:52;100529.56;;;22.53;100.00
48846;BME280;34665;51.886;5.436;2023-07-29T04:45:18;100529.31;;;22.44;100.00
48846;BME280;34665;51.886;5.436;2023-07-29T04:47:43;100517.56;;;22.54;100.00
48846;BME280;34665;51.886;5.436;2023-07-29T04:50:09;100525.06;;;22.72;100.00
48846;BME280;34665;51.886;5.436;2023-07-29T04:52:36;100535.19;;;22.67;100.00
48846;BME280;34665;51.886;5.436;2023-07-29T04:55:01;100541.63;;;22.36;100.00
48846;BME280;34665;51.886;5.436;2023-07-29T04:57:27;100535.59;;;22.44;100.00
48846;BME280;34665;51.886;5.436;2023-07-29T04:59:54;100533.44;;;22.81;100.00
48846;BME280;34665;51.886;5.436;2023-07-29T05:02:19;100540.75;;;22.51;100.00
48846;BME280;34665;51.886;5.436;2023-07-29T05:04:46;100555.56;;;22.74;100.00
48846;BME280;34665;51.886;5.436;2023-07-29T05:07:12;100544.47;;;22.20;100.00
48846;BME280;34665;51.886;5.436;2023-07-29T05:09:37;100542.13;;;22.48;100.00
48846;BME280;34665;51.886;5.436;2023-07-29T05:12:03;100549.69;;;22.57;100.00
48846;BME280;34665;51.886;5.436;2023-07-29T05:14:28;100548.06;;;22.56;100.00
48846;BME280;34665;51.886;5.436;2023-07-29T05:16:54;100553.25;;;22.92;100.00
48846;BME280;34665;51.886;5.436;2023-07-29T05:19:19;100553.19;;;23.32;100.00
48846;BME280;34665;51.886;5.436;2023-07-29T05:21:45;100564.47;;;24.75;100.00
48846;BME280;34665;51.886;5.436;2023-07-29T05:24:17;100568.09;;;24.32;100.00
48846;BME280;34665;51.886;5.436;2023-07-29T05:26:42;100563.72;;;26.19;100.00
48846;BME280;34665;51.886;5.436;2023-07-29T05:29:08;100562.94;;;25.77;100.00
48846;BME280;34665;51.886;5.436;2023-07-29T05:31:34;100555.97;;;24.00;100.00
48846;BME280;34665;51.886;5.436;2023-07-29T05:33:59;100553.41;;;23.84;100.00
48846;BME280;34665;51.886;5.436;2023-07-29T05:36:25;100556.44;;;22.99;100.00
48846;BME280;34665;51.886;5.436;2023-07-29T05:38:51;100548.78;;;23.01;100.00
48846;BME280;34665;51.886;5.436;2023-07-29T05:41:17;100552.88;;;22.69;100.00
48846;BME280;34665;51.886;5.436;2023-07-29T05:43:42;100550.56;;;22.87;100.00
48846;BME280;34665;51.886;5.436;2023-07-29T05:46:09;100556.66;;;23.38;100.00
48846;BME280;34665;51.886;5.436;2023-07-29T05:48:35;100557.53;;;23.33;100.00
48846;BME280;34665;51.886;5.436;2023-07-29T05:51:02;100554.84;;;23.52;100.00
48846;BME280;34665;51.886;5.436;2023-07-29T05:53:27;100553.72;;;19.71;100.00
48846;BME280;34665;51.886;5.436;2023-07-29T05:55:53;100564.09;;;19.36;100.00
48846;BME280;34665;51.886;5.436;2023-07-29T05:58:19;100564.19;;;19.52;100.00
48846;BME280;34665;51.886;5.436;2023-07-29T06:00:44;100561.75;;;19.55;100.00
48846;BME280;34665;51.886;5.436;2023-07-29T06:03:10;100558.03;;;19.67;100.00
48846;BME280;34665;51.886;5.436;2023-07-29T06:05:35;100558.66;;;19.84;100.00
48846;BME280;34665;51.886;5.436;2023-07-29T06:08:02;100559.16;;;19.76;100.00
48846;BME280;34665;51.886;5.436;2023-07-29T06:10:27;100543.81;;;19.97;100.00
48846;BME280;34665;51.886;5.436;2023-07-29T06:12:53;100555.75;;;19.96;100.00
48846;BME280;34665;51.886;5.436;2023-07-29T06:15:18;100561.97;;;19.91;100.00
48846;BME280;34665;51.886;5.436;2023-07-29T06:17:47;100554.16;;;20.11;100.00
48846;BME280;34665;51.886;5.436;2023-07-29T06:20:13;100553.44;;;20.31;100.00
48846;BME280;34665;51.886;5.436;2023-07-29T06:22:38;100557.44;;;20.18;100.00
48846;BME280;34665;51.886;5.436;2023-07-29T06:25:04;100562.72;;;19.87;100.00
48846;BME280;34665;51.886;5.436;2023-07-29T06:27:30;100559.13;;;20.34;100.00
48846;BME280;34665;51.886;5.436;2023-07-29T06:29:55;100569.97;;;20.24;100.00
48846;BME280;34665;51.886;5.436;2023-07-29T06:32:21;100569.66;;;20.20;100.00
48846;BME280;34665;51.886;5.436;2023-07-29T06:34:47;100567.50;;;20.23;100.00
48846;BME280;34665;51.886;5.436;2023-07-29T06:37:12;100573.47;;;20.14;100.00
48846;BME280;34665;51.886;5.436;2023-07-29T06:39:38;100564.22;;;20.10;100.00
48846;BME280;34665;51.886;5.436;2023-07-29T06:42:03;100559.34;;;20.12;100.00
48846;BME280;34665;51.886;5.436;2023-07-29T06:44:28;100559.38;;;20.28;100.00
48846;BME280;34665;51.886;5.436;2023-07-29T06:46:54;100561.56;;;20.36;100.00
48846;BME280;34665;51.886;5.436;2023-07-29T06:49:20;100559.47;;;24.00;100.00
48846;BME280;34665;51.886;5.436;2023-07-29T06:51:45;100562.81;;;24.74;100.00
48846;BME280;34665;51.886;5.436;2023-07-29T06:54:11;100569.34;;;25.11;100.00
48846;BME280;34665;51.886;5.436;2023-07-29T06:56:36;100570.41;;;24.44;100.00
48846;BME280;34665;51.886;5.436;2023-07-29T06:59:02;100571.94;;;24.69;100.00
48846;BME280;34665;51.886;5.436;2023-07-29T07:01:28;100579.31;;;24.69;100.00
48846;BME280;34665;51.886;5.436;2023-07-29T07:03:53;100583.25;;;24.62;100.00
48846;BME280;34665;51.886;5.436;2023-07-29T07:06:23;100588.72;;;25.15;100.00
48846;BME280;34665;51.886;5.436;2023-07-29T07:08:50;100590.38;;;25.30;100.00
48846;BME280;34665;51.886;5.436;2023-07-29T07:11:16;100589.31;;;24.59;100.00
48846;BME280;34665;51.886;5.436;2023-07-29T07:13:41;100588.09;;;24.85;100.00
48846;BME280;34665;51.886;5.436;2023-07-29T07:16:06;100584.78;;;24.88;100.00
48846;BME280;34665;51.886;5.436;2023-07-29T07:18:32;100586.56;;;24.79;100.00
48846;BME280;34665;51.886;5.436;2023-07-29T07:20:57;100590.72;;;24.38;100.00
48846;BME280;34665;51.886;5.436;2023-07-29T07:23:22;100581.97;;;24.93;100.00
48846;BME280;34665;51.886;5.436;2023-07-29T07:25:48;100582.03;;;25.21;100.00
48846;BME280;34665;51.886;5.436;2023-07-29T07:28:13;100587.38;;;25.59;100.00
48846;BME280;34665;51.886;5.436;2023-07-29T07:30:39;100584.78;;;25.21;100.00
48846;BME280;34665;51.886;5.436;2023-07-29T07:33:07;100578.56;;;25.15;100.00
48846;BME280;34665;51.886;5.436;2023-07-29T07:35:32;100580.72;;;25.32;100.00
48846;BME280;34665;51.886;5.436;2023-07-29T07:37:58;100576.38;;;25.31;100.00
48846;BME280;34665;51.886;5.436;2023-07-29T07:40:25;100596.94;;;25.15;100.00
48846;BME280;34665;51.886;5.436;2023-07-29T07:42:50;100585.03;;;25.39;100.00
48846;BME280;34665;51.886;5.436;2023-07-29T07:45:16;100592.38;;;25.24;100.00
48846;BME280;34665;51.886;5.436;2023-07-29T07:47:42;100592.47;;;25.19;100.00
48846;BME280;34665;51.886;5.436;2023-07-29T07:50:08;100583.28;;;25.43;100.00
48846;BME280;34665;51.886;5.436;2023-07-29T07:52:34;100590.53;;;25.67;100.00
48846;BME280;34665;51.886;5.436;2023-07-29T07:54:59;100599.09;;;26.16;100.00
48846;BME280;34665;51.886;5.436;2023-07-29T07:57:25;100604.09;;;26.14;100.00
48846;BME280;34665;51.886;5.436;2023-07-29T07:59:50;100599.09;;;26.16;100.00
48846;BME280;34665;51.886;5.436;2023-07-29T08:02:17;100595.00;;;25.62;100.00
48846;BME280;34665;51.886;5.436;2023-07-29T08:04:43;100610.50;;;26.23;100.00
48846;BME280;34665;51.886;5.436;2023-07-29T08:07:09;100622.38;;;25.90;100.00
48846;BME280;34665;51.886;5.436;2023-07-29T08:09:34;100606.94;;;26.09;100.00
48846;BME280;34665;51.886;5.436;2023-07-29T08:12:00;100615.66;;;26.11;100.00
48846;BME280;34665;51.886;5.436;2023-07-29T08:14:25;100603.91;;;25.54;100.00
48846;BME280;34665;51.886;5.436;2023-07-29T08:16:52;100617.88;;;26.73;100.00
48846;BME280;34665;51.886;5.436;2023-07-29T08:19:17;100607.25;;;26.95;100.00
48846;BME280;34665;51.886;5.436;2023-07-29T08:21:43;100613.47;;;26.86;100.00
48846;BME280;34665;51.886;5.436;2023-07-29T08:24:08;100622.59;;;26.59;100.00
48846;BME280;34665;51.886;5.436;2023-07-29T08:26:33;100623.28;;;26.28;100.00
48846;BME280;34665;51.886;5.436;2023-07-29T08:28:59;100615.63;;;26.75;100.00
48846;BME280;34665;51.886;5.436;2023-07-29T08:31:25;100627.53;;;26.34;100.00
48846;BME280;34665;51.886;5.436;2023-07-29T08:33:50;100617.81;;;26.00;100.00
48846;BME280;34665;51.886;5.436;2023-07-29T08:36:16;100617.19;;;26.31;100.00
48846;BME280;34665;51.886;5.436;2023-07-29T08:38:41;100618.81;;;25.76;100.00
48846;BME280;34665;51.886;5.436;2023-07-29T08:41:16;100621.91;;;22.99;100.00
48846;BME280;34665;51.886;5.436;2023-07-29T08:43:50;100613.66;;;22.14;100.00
48846;BME280;34665;51.886;5.436;2023-07-29T08:46:18;100621.53;;;25.48;100.00
48846;BME280;34665;51.886;5.436;2023-07-29T08:48:44;100622.06;;;25.78;100.00
48846;BME280;34665;51.886;5.436;2023-07-29T08:51:11;100615.34;;;25.56;100.00
48846;BME280;34665;51.886;5.436;2023-07-29T08:53:38;100620.19;;;25.45;100.00
48846;BME280;34665;51.886;5.436;2023-07-29T08:56:04;100624.88;;;26.29;100.00
48846;BME280;34665;51.886;5.436;2023-07-29T08:58:31;100613.47;;;26.49;100.00
48846;BME280;34665;51.886;5.436;2023-07-29T09:00:57;100619.94;;;26.68;100.00
48846;BME280;34665;51.886;5.436;2023-07-29T09:03:22;100618.69;;;26.74;100.00
48846;BME280;34665;51.886;5.436;2023-07-29T09:05:48;100622.75;;;26.76;100.00
48846;BME280;34665;51.886;5.436;2023-07-29T09:08:13;100620.50;;;26.79;100.00
48846;BME280;34665;51.886;5.436;2023-07-29T09:10:39;100619.66;;;26.92;100.00
48846;BME280;34665;51.886;5.436;2023-07-29T09:13:04;100625.03;;;27.52;100.00
48846;BME280;34665;51.886;5.436;2023-07-29T09:15:32;100631.78;;;27.86;100.00
48846;BME280;34665;51.886;5.436;2023-07-29T09:17:57;100630.22;;;27.53;100.00
48846;BME280;34665;51.886;5.436;2023-07-29T09:20:27;100602.47;;;25.10;100.00
48846;BME280;34665;51.886;5.436;2023-07-29T09:22:54;100600.38;;;24.11;100.00
48846;BME280;34665;51.886;5.436;2023-07-29T09:25:23;100612.91;;;23.87;100.00
48846;BME280;34665;51.886;5.436;2023-07-29T09:27:48;100612.28;;;24.58;100.00
48846;BME280;34665;51.886;5.436;2023-07-29T09:30:17;100606.59;;;24.36;100.00
48846;BME280;34665;51.886;5.436;2023-07-29T09:32:43;100604.97;;;24.92;100.00
48846;BME280;34665;51.886;5.436;2023-07-29T09:35:12;100598.09;;;26.99;100.00
48846;BME280;34665;51.886;5.436;2023-07-29T09:37:38;100610.09;;;28.77;100.00
48846;BME280;34665;51.886;5.436;2023-07-29T09:40:04;100613.63;;;29.13;100.00
48846;BME280;34665;51.886;5.436;2023-07-29T09:42:30;100606.81;;;27.65;100.00
48846;BME280;34665;51.886;5.436;2023-07-29T09:44:55;100611.75;;;27.85;100.00
48846;BME280;34665;51.886;5.436;2023-07-29T09:47:25;100607.16;;;29.09;100.00
48846;BME280;34665;51.886;5.436;2023-07-29T09:49:51;100613.63;;;29.04;100.00
48846;BME280;34665;51.886;5.436;2023-07-29T09:52:17;100611.53;;;29.01;100.00
48846;BME280;34665;51.886;5.436;2023-07-29T09:54:43;100613.75;;;28.11;100.00
48846;BME280;34665;51.886;5.436;2023-07-29T09:57:16;100608.88;;;27.99;100.00
48846;BME280;34665;51.886;5.436;2023-07-29T09:59:42;100606.63;;;27.52;100.00
48846;BME280;34665;51.886;5.436;2023-07-29T10:02:09;100597.91;;;28.08;100.00
48846;BME280;34665;51.886;5.436;2023-07-29T10:04:38;100609.25;;;27.34;100.00
48846;BME280;34665;51.886;5.436;2023-07-29T10:07:04;100601.69;;;27.72;100.00
48846;BME280;34665;51.886;5.436;2023-07-29T10:09:30;100608.47;;;28.32;100.00
48846;BME280;34665;51.886;5.436;2023-07-29T10:11:56;100621.56;;;28.27;100.00
48846;BME280;34665;51.886;5.436;2023-07-29T10:14:22;100613.47;;;28.22;100.00
48846;BME280;34665;51.886;5.436;2023-07-29T10:16:48;100608.13;;;28.25;100.00
48846;BME280;34665;51.886;5.436;2023-07-29T10:19:14;100617.34;;;28.21;100.00
48846;BME280;34665;51.886;5.436;2023-07-29T10:21:41;100618.09;;;27.54;100.00
48846;BME280;34665;51.886;5.436;2023-07-29T10:24:11;100606.13;;;27.99;100.00
48846;BME280;34665;51.886;5.436;2023-07-29T10:26:40;100603.44;;;29.14;100.00
48846;BME280;34665;51.886;5.436;2023-07-29T10:29:06;100603.16;;;29.84;100.00
48846;BME280;34665;51.886;5.436;2023-07-29T10:31:34;100595.84;;;30.18;100.00
48846;BME280;34665;51.886;5.436;2023-07-29T10:34:01;100604.53;;;30.72;100.00
48846;BME280;34665;51.886;5.436;2023-07-29T10:36:27;100609.44;;;30.66;100.00
48846;BME280;34665;51.886;5.436;2023-07-29T10:38:53;100604.94;;;29.50;100.00
48846;BME280;34665;51.886;5.436;2023-07-29T10:41:18;100607.59;;;29.20;100.00
48846;BME280;34665;51.886;5.436;2023-07-29T10:43:44;100609.47;;;28.81;100.00
48846;BME280;34665;51.886;5.436;2023-07-29T10:48:42;100620.88;;;29.74;100.00
48846;BME280;34665;51.886;5.436;2023-07-29T10:53:58;100614.28;;;29.01;100.00
48846;BME280;34665;51.886;5.436;2023-07-29T10:56:24;100618.78;;;29.24;100.00
48846;BME280;34665;51.886;5.436;2023-07-29T10:58:51;100629.97;;;28.48;100.00
48846;BME280;34665;51.886;5.436;2023-07-29T11:01:26;100622.56;;;28.48;100.00
48846;BME280;34665;51.886;5.436;2023-07-29T11:07:01;100633.94;;;27.57;100.00
48846;BME280;34665;51.886;5.436;2023-07-29T11:14:51;100621.88;;;25.27;100.00
48846;BME280;34665;51.886;5.436;2023-07-29T11:17:17;100627.34;;;25.27;100.00
48846;BME280;34665;51.886;5.436;2023-07-29T11:19:43;100635.31;;;25.43;100.00
48846;BME280;34665;51.886;5.436;2023-07-29T11:22:09;100645.22;;;25.39;100.00
48846;BME280;34665;51.886;5.436;2023-07-29T11:24:35;100646.28;;;24.71;100.00
48846;BME280;34665;51.886;5.436;2023-07-29T11:27:00;100646.16;;;24.38;100.00
48846;BME280;34665;51.886;5.436;2023-07-29T11:29:26;100654.69;;;23.88;100.00
48846;BME280;34665;51.886;5.436;2023-07-29T11:31:51;100644.44;;;23.99;100.00
48846;BME280;34665;51.886;5.436;2023-07-29T11:34:17;100625.09;;;24.19;100.00
48846;BME280;34665;51.886;5.436;2023-07-29T11:36:45;100638.88;;;24.53;100.00
48846;BME280;34665;51.886;5.436;2023-07-29T11:39:11;100643.03;;;24.69;100.00
48846;BME280;34665;51.886;5.436;2023-07-29T11:41:37;100638.97;;;25.52;100.00
48846;BME280;34665;51.886;5.436;2023-07-29T11:44:03;100636.13;;;24.91;100.00
48846;BME280;34665;51.886;5.436;2023-07-29T11:46:28;100628.75;;;24.91;100.00
48846;BME280;34665;51.886;5.436;2023-07-29T11:48:54;100631.22;;;24.93;100.00
48846;BME280;34665;51.886;5.436;2023-07-29T11:51:19;100638.97;;;24.86;100.00
48846;BME280;34665;51.886;5.436;2023-07-29T11:53:45;100636.44;;;24.89;100.00
48846;BME280;34665;51.886;5.436;2023-07-29T11:56:10;100632.13;;;24.64;100.00
48846;BME280;34665;51.886;5.436;2023-07-29T11:58:38;100646.56;;;24.51;100.00
48846;BME280;34665;51.886;5.436;2023-07-29T12:01:03;100636.22;;;25.05;100.00
48846;BME280;34665;51.886;5.436;2023-07-29T12:03:30;100635.63;;;24.89;100.00
48846;BME280;34665;51.886;5.436;2023-07-29T12:05:56;100633.09;;;25.26;100.00
48846;BME280;34665;51.886;5.436;2023-07-29T12:08:21;100633.91;;;24.36;100.00
48846;BME280;34665;51.886;5.436;2023-07-29T12:10:48;100634.72;;;24.55;100.00
48846;BME280;34665;51.886;5.436;2023-07-29T12:13:14;100634.66;;;24.60;100.00
48846;BME280;34665;51.886;5.436;2023-07-29T12:15:39;100634.88;;;24.64;100.00
48846;BME280;34665;51.886;5.436;2023-07-29T12:18:06;100631.63;;;25.81;100.00
48846;BME280;34665;51.886;5.436;2023-07-29T12:20:31;100633.41;;;26.41;100.00
48846;BME280;34665;51.886;5.436;2023-07-29T12:22:57;100628.94;;;26.45;100.00
48846;BME280;34665;51.886;5.436;2023-07-29T12:25:23;100632.63;;;25.99;100.00
48846;BME280;34665;51.886;5.436;2023-07-29T12:27:49;100621.84;;;26.30;100.00
48846;BME280;34665;51.886;5.436;2023-07-29T12:30:14;100632.06;;;27.75;100.00
48846;BME280;34665;51.886;5.436;2023-07-29T12:32:44;100638.16;;;28.04;100.00
48846;BME280;34665;51.886;5.436;2023-07-29T12:35:09;100632.03;;;27.67;100.00
48846;BME280;34665;51.886;5.436;2023-07-29T12:37:35;100638.19;;;27.41;100.00
48846;BME280;34665;51.886;5.436;2023-07-29T12:40:00;100642.81;;;27.95;100.00
48846;BME280;34665;51.886;5.436;2023-07-29T12:42:26;100638.38;;;28.16;100.00
48846;BME280;34665;51.886;5.436;2023-07-29T12:44:51;100648.72;;;28.37;100.00
48846;BME280;34665;51.886;5.436;2023-07-29T12:47:17;100643.28;;;27.88;100.00
48846;BME280;34665;51.886;5.436;2023-07-29T12:49:42;100650.47;;;27.43;100.00
48846;BME280;34665;51.886;5.436;2023-07-29T12:52:08;100641.84;;;27.27;100.00
48846;BME280;34665;51.886;5.436;2023-07-29T12:54:33;100653.41;;;27.70;100.00
48846;BME280;34665;51.886;5.436;2023-07-29T12:56:59;100642.59;;;27.51;100.00